Terminal Aerodrome Forecast
Issued by NWS Cleveland, OH

Home | Current Version | Previous Version | Graphics & Text | Print | Product List | Glossary On
Versions: 1 2 3 4 5 6 7 8 9 10 11 12 13
000
FTUS41 KCLE 302300
TAFERI
TAF
KERI 302338Z 0100/0124 VRB04KT P6SM VCSH SCT035 OVC070
     FM010100 36004KT P6SM BKN080 OVC200
     FM010400 06005KT P6SM BKN200
     FM011400 35008KT P6SM FEW070 BKN250=

USA.gov is the U.S. government's official web portal to all federal, state and local government web resources and services.